sensor_id;sensor_type;location;lat;lon;timestamp;pressure;altitude;pressure_sealevel;temperature;humidity
56334;BME280;42240;53.626;55.886;2022-11-21T00:00:15;78562.38;;;-145.10;100.00
56334;BME280;42240;53.626;55.886;2022-11-21T00:01:49;78548.50;;;-145.10;100.00
56334;BME280;42240;53.626;55.886;2022-11-21T00:03:22;78558.41;;;-145.10;100.00
56334;BME280;42240;53.626;55.886;2022-11-21T00:04:56;78554.44;;;-145.10;100.00
56334;BME280;42240;53.626;55.886;2022-11-21T00:06:29;78550.50;;;-145.10;100.00
56334;BME280;42240;53.626;55.886;2022-11-21T00:08:02;78546.53;;;-145.10;100.00
56334;BME280;42240;53.626;55.886;2022-11-21T00:09:35;78550.50;;;-145.10;100.00
56334;BME280;42240;53.626;55.886;2022-11-21T00:11:08;78558.41;;;-145.10;100.00
56334;BME280;42240;53.626;55.886;2022-11-21T00:12:42;78558.41;;;-145.10;100.00
56334;BME280;42240;53.626;55.886;2022-11-21T00:14:15;78566.31;;;-145.10;100.00
56334;BME280;42240;53.626;55.886;2022-11-21T00:15:47;78558.41;;;-145.10;100.00
56334;BME280;42240;53.626;55.886;2022-11-21T00:17:20;78552.47;;;-145.10;100.00
56334;BME280;42240;53.626;55.886;2022-11-21T00:18:53;78554.44;;;-145.10;100.00
56334;BME280;42240;53.626;55.886;2022-11-21T00:20:27;78550.50;;;-145.10;100.00
56334;BME280;42240;53.626;55.886;2022-11-21T00:21:59;78552.47;;;-145.10;100.00
56334;BME280;42240;53.626;55.886;2022-11-21T00:23:33;78554.44;;;-145.10;100.00
56334;BME280;42240;53.626;55.886;2022-11-21T00:25:07;78550.50;;;-145.10;100.00
56334;BME280;42240;53.626;55.886;2022-11-21T00:26:40;78554.44;;;-145.10;100.00
56334;BME280;42240;53.626;55.886;2022-11-21T00:28:13;78542.59;;;-145.10;100.00
56334;BME280;42240;53.626;55.886;2022-11-21T00:29:46;78542.59;;;-145.10;100.00
56334;BME280;42240;53.626;55.886;2022-11-21T00:31:21;78536.66;;;-145.10;100.00
56334;BME280;42240;53.626;55.886;2022-11-21T00:32:56;78534.66;;;-145.10;100.00
56334;BME280;42240;53.626;55.886;2022-11-21T00:34:29;78518.84;;;-145.10;100.00
56334;BME280;42240;53.626;55.886;2022-11-21T00:36:06;78524.78;;;-145.10;100.00
56334;BME280;42240;53.626;55.886;2022-11-21T00:37:40;78526.75;;;-145.10;100.00
56334;BME280;42240;53.626;55.886;2022-11-21T00:39:13;78534.66;;;-145.10;100.00
56334;BME280;42240;53.626;55.886;2022-11-21T00:40:45;78524.78;;;-145.10;100.00
56334;BME280;42240;53.626;55.886;2022-11-21T00:42:19;78506.97;;;-145.10;100.00
56334;BME280;42240;53.626;55.886;2022-11-21T00:43:52;78518.84;;;-145.10;100.00
56334;BME280;42240;53.626;55.886;2022-11-21T00:45:25;78508.94;;;-145.10;100.00
56334;BME280;42240;53.626;55.886;2022-11-21T00:46:58;78506.97;;;-145.10;100.00
56334;BME280;42240;53.626;55.886;2022-11-21T00:48:31;78510.94;;;-145.10;100.00
56334;BME280;42240;53.626;55.886;2022-11-21T00:50:05;78514.88;;;-145.10;100.00
56334;BME280;42240;53.626;55.886;2022-11-21T00:51:38;78514.88;;;-145.10;100.00
56334;BME280;42240;53.626;55.886;2022-11-21T00:53:11;78512.91;;;-145.10;100.00
56334;BME280;42240;53.626;55.886;2022-11-21T00:54:43;78512.91;;;-145.10;100.00
56334;BME280;42240;53.626;55.886;2022-11-21T00:56:16;78508.94;;;-145.10;100.00
56334;BME280;42240;53.626;55.886;2022-11-21T00:57:50;78510.94;;;-145.10;100.00
56334;BME280;42240;53.626;55.886;2022-11-21T00:59:23;78512.91;;;-145.10;100.00
56334;BME280;42240;53.626;55.886;2022-11-21T01:01:09;78510.94;;;-145.10;100.00
56334;BME280;42240;53.626;55.886;2022-11-21T01:02:42;78503.00;;;-145.10;100.00
56334;BME280;42240;53.626;55.886;2022-11-21T01:04:15;78499.06;;;-145.10;100.00
56334;BME280;42240;53.626;55.886;2022-11-21T01:05:48;78499.06;;;-145.10;100.00
56334;BME280;42240;53.626;55.886;2022-11-21T01:07:21;78495.09;;;-145.10;100.00
56334;BME280;42240;53.626;55.886;2022-11-21T01:08:54;78491.16;;;-145.10;100.00
56334;BME280;42240;53.626;55.886;2022-11-21T01:10:27;78487.19;;;-145.10;100.00
56334;BME280;42240;53.626;55.886;2022-11-21T01:12:00;78479.28;;;-145.10;100.00
56334;BME280;42240;53.626;55.886;2022-11-21T01:13:34;78479.28;;;-145.10;100.00
56334;BME280;42240;53.626;55.886;2022-11-21T01:15:08;78495.09;;;-145.10;100.00
56334;BME280;42240;53.626;55.886;2022-11-21T01:16:41;78471.34;;;-145.10;100.00
56334;BME280;42240;53.626;55.886;2022-11-21T01:18:14;78467.41;;;-145.10;100.00
56334;BME280;42240;53.626;55.886;2022-11-21T01:19:47;78485.22;;;-145.10;100.00
56334;BME280;42240;53.626;55.886;2022-11-21T01:21:26;78495.09;;;-145.10;100.00
56334;BME280;42240;53.626;55.886;2022-11-21T01:22:59;78491.16;;;-145.10;100.00
56334;BME280;42240;53.626;55.886;2022-11-21T01:24:32;78487.19;;;-145.10;100.00
56334;BME280;42240;53.626;55.886;2022-11-21T01:26:09;78487.19;;;-145.10;100.00
56334;BME280;42240;53.626;55.886;2022-11-21T01:27:42;78491.16;;;-145.10;100.00
56334;BME280;42240;53.626;55.886;2022-11-21T01:29:15;78493.13;;;-145.10;100.00
56334;BME280;42240;53.626;55.886;2022-11-21T01:30:48;78495.09;;;-145.10;100.00
56334;BME280;42240;53.626;55.886;2022-11-21T01:32:21;78485.22;;;-145.10;100.00
56334;BME280;42240;53.626;55.886;2022-11-21T01:33:57;78479.28;;;-145.10;100.00
56334;BME280;42240;53.626;55.886;2022-11-21T01:35:30;78475.31;;;-145.10;100.00
56334;BME280;42240;53.626;55.886;2022-11-21T01:37:03;78475.31;;;-145.10;100.00
56334;BME280;42240;53.626;55.886;2022-11-21T01:38:36;78465.44;;;-145.10;100.00
56334;BME280;42240;53.626;55.886;2022-11-21T01:40:10;78459.50;;;-145.10;100.00
56334;BME280;42240;53.626;55.886;2022-11-21T01:41:44;78455.53;;;-145.10;100.00
56334;BME280;42240;53.626;55.886;2022-11-21T01:43:17;78455.53;;;-145.10;100.00
56334;BME280;42240;53.626;55.886;2022-11-21T01:44:51;78467.41;;;-145.10;100.00
56334;BME280;42240;53.626;55.886;2022-11-21T01:46:27;78479.28;;;-145.10;100.00
56334;BME280;42240;53.626;55.886;2022-11-21T01:48:00;78475.31;;;-145.10;100.00
56334;BME280;42240;53.626;55.886;2022-11-21T01:49:33;78491.16;;;-145.10;100.00
56334;BME280;42240;53.626;55.886;2022-11-21T01:52:45;78475.31;;;-145.10;100.00
56334;BME280;42240;53.626;55.886;2022-11-21T01:54:21;78473.34;;;-145.10;100.00
56334;BME280;42240;53.626;55.886;2022-11-21T01:55:56;78467.41;;;-145.10;100.00
56334;BME280;42240;53.626;55.886;2022-11-21T01:57:37;78483.22;;;-145.10;100.00
56334;BME280;42240;53.626;55.886;2022-11-21T01:59:23;78483.22;;;-145.10;100.00
56334;BME280;42240;53.626;55.886;2022-11-21T02:00:58;78483.22;;;-145.10;100.00
56334;BME280;42240;53.626;55.886;2022-11-21T02:02:45;78499.06;;;-145.10;100.00
56334;BME280;42240;53.626;55.886;2022-11-21T02:04:21;78497.06;;;-145.10;100.00
56334;BME280;42240;53.626;55.886;2022-11-21T02:05:56;78497.06;;;-145.10;100.00
56334;BME280;42240;53.626;55.886;2022-11-21T02:07:35;78503.00;;;-145.10;100.00
56334;BME280;42240;53.626;55.886;2022-11-21T02:09:10;78491.16;;;-145.10;100.00
56334;BME280;42240;53.626;55.886;2022-11-21T02:11:04;78487.19;;;-145.10;100.00
56334;BME280;42240;53.626;55.886;2022-11-21T02:12:55;78493.13;;;-145.10;100.00
56334;BME280;42240;53.626;55.886;2022-11-21T02:14:30;78518.84;;;-145.10;100.00
56334;BME280;42240;53.626;55.886;2022-11-21T02:16:05;78483.22;;;-145.10;100.00
56334;BME280;42240;53.626;55.886;2022-11-21T02:17:38;78491.16;;;-145.10;100.00
56334;BME280;42240;53.626;55.886;2022-11-21T02:19:19;78506.97;;;-145.10;100.00
56334;BME280;42240;53.626;55.886;2022-11-21T02:26:31;78499.06;;;-145.10;100.00
56334;BME280;42240;53.626;55.886;2022-11-21T02:28:08;78503.00;;;-145.10;100.00
56334;BME280;42240;53.626;55.886;2022-11-21T02:29:43;78499.06;;;-145.10;100.00
56334;BME280;42240;53.626;55.886;2022-11-21T02:31:16;78501.03;;;-145.10;100.00
56334;BME280;42240;53.626;55.886;2022-11-21T02:32:49;78522.81;;;-145.10;100.00
56334;BME280;42240;53.626;55.886;2022-11-21T02:34:22;78524.78;;;-145.10;100.00
56334;BME280;42240;53.626;55.886;2022-11-21T02:35:59;78512.91;;;-145.10;100.00
56334;BME280;42240;53.626;55.886;2022-11-21T02:37:34;78503.00;;;-145.10;100.00
56334;BME280;42240;53.626;55.886;2022-11-21T02:39:15;78518.84;;;-145.10;100.00
56334;BME280;42240;53.626;55.886;2022-11-21T02:40:52;78497.06;;;-145.10;100.00
56334;BME280;42240;53.626;55.886;2022-11-21T02:42:33;78497.06;;;-145.10;100.00
56334;BME280;42240;53.626;55.886;2022-11-21T02:44:17;78493.13;;;-145.10;100.00
56334;BME280;42240;53.626;55.886;2022-11-21T02:45:52;78506.97;;;-145.10;100.00
56334;BME280;42240;53.626;55.886;2022-11-21T02:47:26;78497.06;;;-145.10;100.00
56334;BME280;42240;53.626;55.886;2022-11-21T02:49:03;78491.16;;;-145.10;100.00
56334;BME280;42240;53.626;55.886;2022-11-21T02:50:40;78491.16;;;-145.10;100.00
56334;BME280;42240;53.626;55.886;2022-11-21T02:52:13;78495.09;;;-145.10;100.00
56334;BME280;42240;53.626;55.886;2022-11-21T02:53:46;78493.13;;;-145.10;100.00
56334;BME280;42240;53.626;55.886;2022-11-21T02:55:19;78485.22;;;-145.10;100.00
56334;BME280;42240;53.626;55.886;2022-11-21T02:56:52;78495.09;;;-145.10;100.00
56334;BME280;42240;53.626;55.886;2022-11-21T02:58:25;78499.06;;;-145.10;100.00
56334;BME280;42240;53.626;55.886;2022-11-21T02:59:58;78506.97;;;-145.10;100.00
56334;BME280;42240;53.626;55.886;2022-11-21T03:01:30;78518.84;;;-145.10;100.00
56334;BME280;42240;53.626;55.886;2022-11-21T03:03:04;78518.84;;;-145.10;100.00
56334;BME280;42240;53.626;55.886;2022-11-21T03:04:37;78526.75;;;-145.10;100.00
56334;BME280;42240;53.626;55.886;2022-11-21T03:06:10;78540.59;;;-145.10;100.00
56334;BME280;42240;53.626;55.886;2022-11-21T03:07:44;78544.56;;;-145.10;100.00
56334;BME280;42240;53.626;55.886;2022-11-21T03:09:17;78548.50;;;-145.10;100.00
56334;BME280;42240;53.626;55.886;2022-11-21T03:10:50;78538.63;;;-145.10;100.00
56334;BME280;42240;53.626;55.886;2022-11-21T03:12:23;78542.59;;;-145.10;100.00
56334;BME280;42240;53.626;55.886;2022-11-21T03:13:56;78536.66;;;-145.10;100.00
56334;BME280;42240;53.626;55.886;2022-11-21T03:15:32;78552.47;;;-145.10;100.00
56334;BME280;42240;53.626;55.886;2022-11-21T03:17:05;78546.53;;;-145.10;100.00
56334;BME280;42240;53.626;55.886;2022-11-21T03:18:38;78540.59;;;-145.10;100.00
56334;BME280;42240;53.626;55.886;2022-11-21T03:20:11;78532.69;;;-145.10;100.00
56334;BME280;42240;53.626;55.886;2022-11-21T03:21:44;78544.56;;;-145.10;100.00
56334;BME280;42240;53.626;55.886;2022-11-21T03:23:17;78540.59;;;-145.10;100.00
56334;BME280;42240;53.626;55.886;2022-11-21T03:24:50;78540.59;;;-145.10;100.00
56334;BME280;42240;53.626;55.886;2022-11-21T03:26:23;78536.66;;;-145.10;100.00
56334;BME280;42240;53.626;55.886;2022-11-21T03:27:56;78538.63;;;-145.10;100.00
56334;BME280;42240;53.626;55.886;2022-11-21T03:29:28;78534.66;;;-145.10;100.00
56334;BME280;42240;53.626;55.886;2022-11-21T03:31:01;78522.81;;;-145.10;100.00
56334;BME280;42240;53.626;55.886;2022-11-21T03:32:34;78518.84;;;-145.10;100.00
56334;BME280;42240;53.626;55.886;2022-11-21T03:34:07;78528.72;;;-145.10;100.00
56334;BME280;42240;53.626;55.886;2022-11-21T03:35:40;78526.75;;;-145.10;100.00
56334;BME280;42240;53.626;55.886;2022-11-21T03:37:13;78540.59;;;-145.10;100.00
56334;BME280;42240;53.626;55.886;2022-11-21T03:38:46;78530.72;;;-145.10;100.00
56334;BME280;42240;53.626;55.886;2022-11-21T03:40:19;78538.63;;;-145.10;100.00
56334;BME280;42240;53.626;55.886;2022-11-21T03:41:52;78542.59;;;-145.10;100.00
56334;BME280;42240;53.626;55.886;2022-11-21T03:43:25;78544.56;;;-145.10;100.00
56334;BME280;42240;53.626;55.886;2022-11-21T03:44:58;78562.38;;;-145.10;100.00
56334;BME280;42240;53.626;55.886;2022-11-21T03:46:35;78550.50;;;-145.10;100.00
56334;BME280;42240;53.626;55.886;2022-11-21T03:48:08;78540.59;;;-145.10;100.00
56334;BME280;42240;53.626;55.886;2022-11-21T03:49:41;78538.63;;;-145.10;100.00
56334;BME280;42240;53.626;55.886;2022-11-21T03:51:14;78538.63;;;-145.10;100.00
56334;BME280;42240;53.626;55.886;2022-11-21T03:52:47;78538.63;;;-145.10;100.00
56334;BME280;42240;53.626;55.886;2022-11-21T03:54:20;78526.75;;;-145.10;100.00
56334;BME280;42240;53.626;55.886;2022-11-21T03:55:53;78522.81;;;-145.10;100.00
56334;BME280;42240;53.626;55.886;2022-11-21T03:57:26;78520.81;;;-145.10;100.00
56334;BME280;42240;53.626;55.886;2022-11-21T03:58:59;78510.94;;;-145.10;100.00
56334;BME280;42240;53.626;55.886;2022-11-21T04:00:32;78518.84;;;-145.10;100.00
56334;BME280;42240;53.626;55.886;2022-11-21T04:02:05;78516.88;;;-145.10;100.00
56334;BME280;42240;53.626;55.886;2022-11-21T04:03:39;78503.00;;;-145.10;100.00
56334;BME280;42240;53.626;55.886;2022-11-21T04:05:12;78518.84;;;-145.10;100.00
56334;BME280;42240;53.626;55.886;2022-11-21T04:06:45;78522.81;;;-145.10;100.00
56334;BME280;42240;53.626;55.886;2022-11-21T04:08:19;78524.78;;;-145.10;100.00
56334;BME280;42240;53.626;55.886;2022-11-21T04:09:52;78522.81;;;-145.10;100.00
56334;BME280;42240;53.626;55.886;2022-11-21T04:11:25;78508.94;;;-145.10;100.00
56334;BME280;42240;53.626;55.886;2022-11-21T04:12:58;78518.84;;;-145.10;100.00
56334;BME280;42240;53.626;55.886;2022-11-21T04:14:31;78505.00;;;-145.10;100.00
56334;BME280;42240;53.626;55.886;2022-11-21T04:16:05;78501.03;;;-145.10;100.00
56334;BME280;42240;53.626;55.886;2022-11-21T04:17:38;78506.97;;;-145.10;100.00
56334;BME280;42240;53.626;55.886;2022-11-21T04:19:11;78508.94;;;-145.10;100.00
56334;BME280;42240;53.626;55.886;2022-11-21T04:20:44;78499.06;;;-145.10;100.00
56334;BME280;42240;53.626;55.886;2022-11-21T04:22:17;78497.06;;;-145.10;100.00
56334;BME280;42240;53.626;55.886;2022-11-21T04:23:49;78491.16;;;-145.10;100.00
56334;BME280;42240;53.626;55.886;2022-11-21T04:25:23;78487.19;;;-145.10;100.00
56334;BME280;42240;53.626;55.886;2022-11-21T04:26:56;78487.19;;;-145.10;100.00
56334;BME280;42240;53.626;55.886;2022-11-21T04:28:29;78499.06;;;-145.10;100.00
56334;BME280;42240;53.626;55.886;2022-11-21T04:30:03;78505.00;;;-145.10;100.00
56334;BME280;42240;53.626;55.886;2022-11-21T04:31:36;78495.09;;;-145.10;100.00
56334;BME280;42240;53.626;55.886;2022-11-21T04:33:10;78497.06;;;-145.10;100.00
56334;BME280;42240;53.626;55.886;2022-11-21T04:34:43;78506.97;;;-145.10;100.00
56334;BME280;42240;53.626;55.886;2022-11-21T04:36:16;78487.19;;;-145.10;100.00
56334;BME280;42240;53.626;55.886;2022-11-21T04:37:50;78493.13;;;-145.10;100.00
56334;BME280;42240;53.626;55.886;2022-11-21T04:39:23;78487.19;;;-145.10;100.00
56334;BME280;42240;53.626;55.886;2022-11-21T04:40:56;78485.22;;;-145.10;100.00
56334;BME280;42240;53.626;55.886;2022-11-21T04:42:29;78475.31;;;-145.10;100.00
56334;BME280;42240;53.626;55.886;2022-11-21T04:44:02;78463.44;;;-145.10;100.00
56334;BME280;42240;53.626;55.886;2022-11-21T04:45:35;78451.56;;;-145.10;100.00
56334;BME280;42240;53.626;55.886;2022-11-21T04:47:08;78445.63;;;-145.10;100.00
56334;BME280;42240;53.626;55.886;2022-11-21T04:48:41;78441.69;;;-145.10;100.00
56334;BME280;42240;53.626;55.886;2022-11-21T04:50:16;78441.69;;;-145.10;100.00
56334;BME280;42240;53.626;55.886;2022-11-21T04:51:49;78443.66;;;-145.10;100.00
56334;BME280;42240;53.626;55.886;2022-11-21T04:53:22;78433.78;;;-145.10;100.00
56334;BME280;42240;53.626;55.886;2022-11-21T04:54:55;78419.94;;;-145.10;100.00
56334;BME280;42240;53.626;55.886;2022-11-21T04:56:28;78417.94;;;-145.10;100.00
56334;BME280;42240;53.626;55.886;2022-11-21T04:58:01;78427.84;;;-145.10;100.00
56334;BME280;42240;53.626;55.886;2022-11-21T04:59:34;78421.91;;;-145.10;100.00
56334;BME280;42240;53.626;55.886;2022-11-21T05:01:07;78419.94;;;-145.10;100.00
56334;BME280;42240;53.626;55.886;2022-11-21T05:02:40;78408.06;;;-145.10;100.00
56334;BME280;42240;53.626;55.886;2022-11-21T05:04:13;78410.03;;;-145.10;100.00
56334;BME280;42240;53.626;55.886;2022-11-21T05:05:46;78408.06;;;-145.10;100.00
56334;BME280;42240;53.626;55.886;2022-11-21T05:07:20;78410.03;;;-145.10;100.00
56334;BME280;42240;53.626;55.886;2022-11-21T05:08:53;78396.19;;;-145.10;100.00
56334;BME280;42240;53.626;55.886;2022-11-21T05:10:26;78392.22;;;-145.10;100.00
56334;BME280;42240;53.626;55.886;2022-11-21T05:11:59;78412.00;;;-145.10;100.00
56334;BME280;42240;53.626;55.886;2022-11-21T05:13:52;78429.81;;;-145.10;100.00
56334;BME280;42240;53.626;55.886;2022-11-21T05:15:25;78427.84;;;-145.10;100.00
56334;BME280;42240;53.626;55.886;2022-11-21T05:16:59;78419.94;;;-145.10;100.00
56334;BME280;42240;53.626;55.886;2022-11-21T05:18:32;78410.03;;;-145.10;100.00
56334;BME280;42240;53.626;55.886;2022-11-21T05:20:05;78398.16;;;-145.10;100.00
56334;BME280;42240;53.626;55.886;2022-11-21T05:21:38;78384.31;;;-145.10;100.00
56334;BME280;42240;53.626;55.886;2022-11-21T05:23:11;78376.41;;;-145.10;100.00
56334;BME280;42240;53.626;55.886;2022-11-21T05:24:44;78368.50;;;-145.10;100.00
56334;BME280;42240;53.626;55.886;2022-11-21T05:26:17;78364.53;;;-145.10;100.00
56334;BME280;42240;53.626;55.886;2022-11-21T05:27:50;78348.72;;;-145.10;100.00
56334;BME280;42240;53.626;55.886;2022-11-21T05:29:27;78348.72;;;-145.10;100.00
56334;BME280;42240;53.626;55.886;2022-11-21T05:30:59;78350.69;;;-145.10;100.00
56334;BME280;42240;53.626;55.886;2022-11-21T05:32:32;78340.78;;;-145.10;100.00
56334;BME280;42240;53.626;55.886;2022-11-21T05:34:05;78334.84;;;-145.10;100.00
56334;BME280;42240;53.626;55.886;2022-11-21T05:35:38;78336.84;;;-145.10;100.00
56334;BME280;42240;53.626;55.886;2022-11-21T05:37:15;78352.66;;;-145.10;100.00
56334;BME280;42240;53.626;55.886;2022-11-21T05:38:48;78344.75;;;-145.10;100.00
56334;BME280;42240;53.626;55.886;2022-11-21T05:40:21;78348.72;;;-145.10;100.00
56334;BME280;42240;53.626;55.886;2022-11-21T05:41:54;78348.72;;;-145.10;100.00
56334;BME280;42240;53.626;55.886;2022-11-21T05:43:34;78396.19;;;-145.10;100.00
56334;BME280;42240;53.626;55.886;2022-11-21T05:45:19;78358.59;;;-145.10;100.00
56334;BME280;42240;53.626;55.886;2022-11-21T05:46:52;78358.59;;;-145.10;100.00
56334;BME280;42240;53.626;55.886;2022-11-21T05:48:25;78350.69;;;-145.10;100.00
56334;BME280;42240;53.626;55.886;2022-11-21T05:49:58;78356.63;;;-145.10;100.00
56334;BME280;42240;53.626;55.886;2022-11-21T05:51:31;78346.72;;;-145.10;100.00
56334;BME280;42240;53.626;55.886;2022-11-21T05:53:04;78340.78;;;-145.10;100.00
56334;BME280;42240;53.626;55.886;2022-11-21T05:54:37;78321.00;;;-145.10;100.00
56334;BME280;42240;53.626;55.886;2022-11-21T05:56:18;78324.97;;;-145.10;100.00
56334;BME280;42240;53.626;55.886;2022-11-21T05:57:51;78344.75;;;-145.10;100.00
56334;BME280;42240;53.626;55.886;2022-11-21T05:59:24;78344.75;;;-145.10;100.00
56334;BME280;42240;53.626;55.886;2022-11-21T06:00:58;78356.63;;;-145.10;100.00
56334;BME280;42240;53.626;55.886;2022-11-21T06:02:31;78344.75;;;-145.10;100.00
56334;BME280;42240;53.626;55.886;2022-11-21T06:04:22;78340.78;;;-145.10;100.00
56334;BME280;42240;53.626;55.886;2022-11-21T06:06:07;78313.09;;;-145.10;100.00
56334;BME280;42240;53.626;55.886;2022-11-21T06:07:40;78309.13;;;-145.10;100.00
56334;BME280;42240;53.626;55.886;2022-11-21T06:09:13;78297.28;;;-145.10;100.00
56334;BME280;42240;53.626;55.886;2022-11-21T06:10:46;78273.53;;;-145.10;100.00
56334;BME280;42240;53.626;55.886;2022-11-21T06:12:19;78283.44;;;-145.10;100.00
56334;BME280;42240;53.626;55.886;2022-11-21T06:13:57;78273.53;;;-145.10;100.00
56334;BME280;42240;53.626;55.886;2022-11-21T06:15:30;78273.53;;;-145.10;100.00
56334;BME280;42240;53.626;55.886;2022-11-21T06:17:04;78281.44;;;-145.10;100.00
56334;BME280;42240;53.626;55.886;2022-11-21T06:18:48;78265.63;;;-145.10;100.00
56334;BME280;42240;53.626;55.886;2022-11-21T06:20:30;78257.72;;;-145.10;100.00
56334;BME280;42240;53.626;55.886;2022-11-21T06:22:04;78245.84;;;-145.10;100.00
56334;BME280;42240;53.626;55.886;2022-11-21T06:23:45;78237.94;;;-145.10;100.00
56334;BME280;42240;53.626;55.886;2022-11-21T06:25:21;78237.94;;;-145.10;100.00
56334;BME280;42240;53.626;55.886;2022-11-21T06:26:58;78220.13;;;-145.10;100.00
56334;BME280;42240;53.626;55.886;2022-11-21T06:28:34;78202.31;;;-145.10;100.00
56334;BME280;42240;53.626;55.886;2022-11-21T06:30:08;78214.19;;;-145.10;100.00
56334;BME280;42240;53.626;55.886;2022-11-21T06:31:50;78245.84;;;-145.10;100.00
56334;BME280;42240;53.626;55.886;2022-11-21T06:33:24;78230.00;;;-145.10;100.00
56334;BME280;42240;53.626;55.886;2022-11-21T06:34:58;78204.28;;;-145.10;100.00
56334;BME280;42240;53.626;55.886;2022-11-21T06:36:34;78206.28;;;-145.10;100.00
56334;BME280;42240;53.626;55.886;2022-11-21T06:38:08;78206.28;;;-145.10;100.00
56334;BME280;42240;53.626;55.886;2022-11-21T06:39:42;78196.38;;;-145.10;100.00
56334;BME280;42240;53.626;55.886;2022-11-21T06:41:19;78202.31;;;-145.10;100.00
56334;BME280;42240;53.626;55.886;2022-11-21T06:42:56;78176.59;;;-145.10;100.00
56334;BME280;42240;53.626;55.886;2022-11-21T06:44:30;78196.38;;;-145.10;100.00
56334;BME280;42240;53.626;55.886;2022-11-21T06:46:12;78184.50;;;-145.10;100.00
56334;BME280;42240;53.626;55.886;2022-11-21T06:47:47;78180.56;;;-145.10;100.00
56334;BME280;42240;53.626;55.886;2022-11-21T06:49:20;78174.63;;;-145.10;100.00
56334;BME280;42240;53.626;55.886;2022-11-21T06:50:54;78166.72;;;-145.10;100.00
56334;BME280;42240;53.626;55.886;2022-11-21T06:52:31;78166.72;;;-145.10;100.00
56334;BME280;42240;53.626;55.886;2022-11-21T06:54:05;78146.94;;;-145.10;100.00
56334;BME280;42240;53.626;55.886;2022-11-21T06:55:39;78133.09;;;-145.10;100.00
56334;BME280;42240;53.626;55.886;2022-11-21T06:57:13;78160.78;;;-145.10;100.00
56334;BME280;42240;53.626;55.886;2022-11-21T06:58:50;78137.03;;;-145.10;100.00
56334;BME280;42240;53.626;55.886;2022-11-21T07:00:27;78121.22;;;-145.10;100.00
56334;BME280;42240;53.626;55.886;2022-11-21T07:02:01;78142.97;;;-145.10;100.00
56334;BME280;42240;53.626;55.886;2022-11-21T07:03:35;78144.94;;;-145.10;100.00
56334;BME280;42240;53.626;55.886;2022-11-21T07:05:09;78192.44;;;-145.10;100.00
56334;BME280;42240;53.626;55.886;2022-11-21T07:06:43;78174.63;;;-145.10;100.00
56334;BME280;42240;53.626;55.886;2022-11-21T07:08:16;78170.66;;;-145.10;100.00
56334;BME280;42240;53.626;55.886;2022-11-21T07:09:51;78168.69;;;-145.10;100.00
56334;BME280;42240;53.626;55.886;2022-11-21T07:11:24;78164.72;;;-145.10;100.00
56334;BME280;42240;53.626;55.886;2022-11-21T07:12:59;78158.78;;;-145.10;100.00
56334;BME280;42240;53.626;55.886;2022-11-21T07:14:51;78174.63;;;-145.10;100.00
56334;BME280;42240;53.626;55.886;2022-11-21T07:16:26;78146.94;;;-145.10;100.00
56334;BME280;42240;53.626;55.886;2022-11-21T07:18:03;78160.78;;;-145.10;100.00
56334;BME280;42240;53.626;55.886;2022-11-21T07:19:37;78170.66;;;-145.10;100.00
56334;BME280;42240;53.626;55.886;2022-11-21T07:21:12;78123.19;;;-145.10;100.00
56334;BME280;42240;53.626;55.886;2022-11-21T07:22:47;78117.25;;;-145.10;100.00
56334;BME280;42240;53.626;55.886;2022-11-21T07:24:23;78127.16;;;-145.10;100.00
56334;BME280;42240;53.626;55.886;2022-11-21T07:26:02;78121.22;;;-145.10;100.00
56334;BME280;42240;53.626;55.886;2022-11-21T07:27:36;78101.44;;;-145.10;100.00
56334;BME280;42240;53.626;55.886;2022-11-21T07:29:10;78103.41;;;-145.10;100.00
56334;BME280;42240;53.626;55.886;2022-11-21T07:30:44;78103.41;;;-145.10;100.00
56334;BME280;42240;53.626;55.886;2022-11-21T07:32:18;78099.44;;;-145.10;100.00
56334;BME280;42240;53.626;55.886;2022-11-21T07:33:51;78067.81;;;-145.10;100.00
56334;BME280;42240;53.626;55.886;2022-11-21T07:35:28;78055.94;;;-145.10;100.00
56334;BME280;42240;53.626;55.886;2022-11-21T07:37:05;78073.75;;;-145.10;100.00
56334;BME280;42240;53.626;55.886;2022-11-21T07:38:39;78083.63;;;-145.10;100.00
56334;BME280;42240;53.626;55.886;2022-11-21T07:40:14;78079.66;;;-145.10;100.00
56334;BME280;42240;53.626;55.886;2022-11-21T07:41:48;78063.84;;;-145.10;100.00
56334;BME280;42240;53.626;55.886;2022-11-21T07:43:22;78057.91;;;-145.10;100.00
56334;BME280;42240;53.626;55.886;2022-11-21T07:44:59;78075.72;;;-145.10;100.00
56334;BME280;42240;53.626;55.886;2022-11-21T07:46:36;78087.59;;;-145.10;100.00
56334;BME280;42240;53.626;55.886;2022-11-21T07:48:10;78115.28;;;-145.10;100.00
56334;BME280;42240;53.626;55.886;2022-11-21T07:49:44;78075.72;;;-145.10;100.00
56334;BME280;42240;53.626;55.886;2022-11-21T07:51:18;78081.66;;;-145.10;100.00
56334;BME280;42240;53.626;55.886;2022-11-21T07:53:02;78067.81;;;-145.10;100.00
56334;BME280;42240;53.626;55.886;2022-11-21T07:54:37;78059.88;;;-145.10;100.00
56334;BME280;42240;53.626;55.886;2022-11-21T07:56:11;78055.94;;;-145.10;100.00
56334;BME280;42240;53.626;55.886;2022-11-21T07:57:59;78055.94;;;-145.10;100.00
56334;BME280;42240;53.626;55.886;2022-11-21T07:59:33;78044.06;;;-145.10;100.00
56334;BME280;42240;53.626;55.886;2022-11-21T08:01:07;78075.72;;;-145.10;100.00
56334;BME280;42240;53.626;55.886;2022-11-21T08:02:43;78091.53;;;-145.10;100.00